x

Ilm2 - 5 Miles Se Of Wrightsville Beach, Nc (41038) Weather Station

3:08 - Thu 30th Mar 2017 All times are EDT. -4 hours from GMT.

  • Wind
    13mph, 18mph gusts
  • Sea Temp 58°f
  • Aire Temp 60°f
  • Sea Pressure 1019.3mb
  • Ilm2 - 5 Miles Se Of Wrightsville Beach, Nc
  • Ilm2 - 5 Miles Se Of Wrightsville Beach, Nc

More Historic Weather Station data

Upgrade to MSW Pro to gain access to the past 30 days of data for over 8000 Wavebouys and Weather Stations around the globe.

Join Pro

Comparision Forecast

View Surf forecast
   
jue 03/30 3:08 13 18 mph 1019.3mb 58f 60f
2:08 13 20 mph 1019.6mb 58f 60f
1:08 16 22 mph 1019.7mb 59f 60f
12:08 13 22 mph 1020.2mb 59f 60f
mié 03/29 11:08 18 27 mph 1019.7mb 59f 60f
10:08 16 22 mph 1019.7mb 59f 60f
9:08 13 20 mph 1019.1mb 59f 61f
8:08 13 20 mph 1018.5mb 59f 60f
7:08 11 20 mph 1017.8mb 59f 61f
6:08 11 18 mph 1017.3mb 59f 61f
5:08 11 20 mph 1017.2mb 59f 61f
4:08 11 25 mph 1017.3mb 59f 60f
3:08 11 20 mph 1017.2mb 59f 61f
2:08 13 20 mph 1017.5mb 59f 60f
1:08 13 20 mph 1017.6mb 59f 60f
12:08 16 25 mph 1017.6mb 59f 61f
11:08 16 22 mph 1017.1mb 59f 61f
10:08 13 18 mph 1016.1mb 59f 61f
9:08 9 13 mph 1015.6mb 58f 60f
8:08 11 16 mph 1015.1mb 59f 60f
7:08 7 11 mph 1014.5mb 59f 60f
6:08 7 11 mph 1013.9mb 59f 60f
5:08 7 11 mph 1013.5mb 59f 60f
4:08 4 9 mph 1013mb 59f 60f
3:08 4 11 mph 1013mb 58f 60f
2:08 2 7 mph 1013mb 58f 60f
1:08 4 7 mph 1013.1mb 58f 61f
12:08 7 11 mph 1013.2mb 58f 61f
mar 03/28 11:08 9 11 mph 1013.2mb 58f 63f
10:08 2 11 mph 1013.3mb 58f 64f
9:08 9 13 mph 1012.5mb 59f 62f
8:08 9 11 mph 1012.2mb 58f 61f
7:08 13 22 mph 1011.9mb 59f 64f
6:08 11 18 mph 1011.5mb 59f 63f
5:08 13 20 mph 1011.5mb 60f 63f
4:08 11 20 mph 1012.2mb 60f 63f
11:08 11 16 mph 1016mb 60f 63f
10:08 13 18 mph 1015.6mb 60f 63f
9:08 11 13 mph 1015.4mb 60f 62f
8:08 7 9 mph 1015.7mb 60f 62f
7:08 9 13 mph 1015.2mb 60f 62f
6:08 7 9 mph 1015mb 60f 62f
5:08 7 11 mph 1015.2mb 60f 62f
4:08 13 20 mph 1014.8mb 60f 64f
3:08 13 18 mph 1015.4mb 60f 64f
2:08 11 13 mph 1016.2mb 60f 63f
1:08 7 11 mph 1016.6mb 60f 62f
12:08 4 7 mph 1017.2mb 60f 63f
lun 03/27 11:08 7 9 mph 1017.4mb 61f 63f
10:08 4 9 mph 1017.4mb 61f 63f
9:08 7 11 mph 1017.2mb 61f 64f
8:08 7 9 mph 1017.1mb 62f 64f
7:08 4 9 mph 1017.2mb 63f 64f
6:08 4 9 mph 1017.1mb 62f 65f
5:08 7 9 mph 1017.5mb 63f 65f
4:08 7 11 mph 1018.2mb 63f 65f
3:08 9 11 mph 1019.2mb 63f 65f
2:08 7 11 mph 1020.1mb 62f 66f
1:08 4 9 mph 1020.9mb 61f 65f
12:08 2 7 mph 1021.4mb 60f 66f
11:08 2 4 mph 1021.6mb 60f 64f
10:08 4 7 mph 1021.5mb 60f 62f
9:08 2 4 mph 1021.1mb 59f 62f
8:08 4 7 mph 1020.8mb 59f 61f
7:08 2 7 mph 1020.4mb 60f 60f
6:08 2 4 mph 1019.9mb 59f 60f
5:08 4 9 mph 1019.7mb 60f 61f
4:08 7 9 mph 1019.8mb 60f 62f
3:08 9 11 mph 1020.3mb 60f 62f
2:08 7 11 mph 1021mb 60f 63f
1:08 9 13 mph 1021.5mb 61f 63f
12:08 7 11 mph 1021.9mb 60f 63f
dom 03/26 11:08 7 11 mph 1022.2mb 60f 63f
10:08 7 9 mph 1022.3mb 61f 63f
9:08 9 11 mph 1022.1mb 62f 64f
8:08 9 13 mph 1021.8mb 62f 64f
7:08 9 11 mph 1021.8mb 62f 64f
6:08 4 7 mph 1021.9mb 63f 65f
5:08 4 9 mph 1022.1mb 62f 65f
4:08 7 9 mph 1022.4mb 62f 65f
3:08 2 7 mph 1022.9mb 61f 64f
2:08 7 9 mph 1023.3mb 60f 64f
1:08 4 9 mph 1024.1mb 59f 64f
12:08 7 11 mph 1024.3mb 58f 64f
11:08 9 13 mph 1024.5mb 58f 63f
10:08 9 13 mph 1024.4mb 58f 63f
9:08 9 11 mph 1024.1mb 58f 63f